Time;durP1;ratioP1;P1;durP2;ratioP2;P2;SDS_P1;SDS_P2;PMS_P1;PMS_P2;Temp;Humidity;BMP_temperature;BMP_pressure;BME280_temperature;BME280_humidity;BME280_pressure;Samples;Min_cycle;Max_cycle;Signal;HPM_P1;HPM_P2
2023/07/02 00:01:48;;;;;;;8.65;4.00;;;;;;;27.92;37.29;100911.50;4976673;28;20023;-48
2023/07/02 00:04:19;;;;;;;9.82;4.93;;;;;;;27.51;38.11;100913.47;4976755;28;20027;-50
2023/07/02 00:06:48;;;;;;;8.50;4.55;;;;;;;27.80;38.43;100917.63;4976575;28;20027;-46
2023/07/02 00:09:16;;;;;;;11.50;4.22;;;;;;;27.29;38.37;100919.88;4976536;28;20504;-46
2023/07/02 00:11:45;;;;;;;9.32;4.55;;;;;;;27.39;38.19;100909.72;4976643;28;20110;-49
2023/07/02 00:14:13;;;;;;;9.75;4.32;;;;;;;27.40;38.59;100914.91;4976497;28;20110;-47
2023/07/02 00:16:45;;;;;;;8.55;4.55;;;;;;;27.25;37.94;100905.13;4976433;28;20035;-49
2023/07/02 00:19:13;;;;;;;13.05;4.28;;;;;;;27.39;39.08;100907.78;4976648;28;20058;-49
2023/07/02 00:21:40;;;;;;;8.65;4.30;;;;;;;27.27;38.60;100902.09;4976446;28;20026;-49
2023/07/02 00:24:11;;;;;;;10.85;4.63;;;;;;;27.32;39.32;100904.69;4975796;28;20388;-46
2023/07/02 00:26:38;;;;;;;9.18;3.97;;;;;;;26.83;38.88;100906.50;4976498;28;20070;-49
2023/07/02 00:29:06;;;;;;;9.60;4.40;;;;;;;26.26;40.84;100898.78;4976493;28;20383;-49
2023/07/02 00:31:33;;;;;;;9.15;4.13;;;;;;;26.45;40.86;100898.66;4976231;28;20023;-49
2023/07/02 00:34:02;;;;;;;9.13;4.53;;;;;;;26.44;40.45;100899.78;4976104;28;20365;-48
2023/07/02 00:36:29;;;;;;;12.25;4.30;;;;;;;26.40;41.69;100885.00;4976203;28;20029;-50
2023/07/02 00:38:56;;;;;;;11.20;4.32;;;;;;;26.13;41.11;100887.84;4976562;28;20045;-48
2023/07/02 00:41:23;;;;;;;11.65;5.07;;;;;;;25.65;41.91;100888.31;4976141;28;20023;-50
2023/07/02 00:43:49;;;;;;;10.27;4.15;;;;;;;25.89;40.62;100883.44;4975764;28;20034;-49
2023/07/02 00:46:22;;;;;;;10.27;4.68;;;;;;;25.68;41.31;100880.28;4976278;28;20046;-50
2023/07/02 00:48:53;;;;;;;9.82;4.57;;;;;;;25.74;41.65;100878.28;4975887;28;20034;-50
2023/07/02 00:51:21;;;;;;;11.30;4.60;;;;;;;25.61;41.84;100881.81;4975809;28;20460;-50
2023/07/02 00:53:49;;;;;;;9.13;4.55;;;;;;;25.47;41.21;100882.63;4975893;28;20023;-51
2023/07/02 00:56:16;;;;;;;13.30;5.15;;;;;;;25.15;42.33;100869.84;4975862;28;20546;-48
2023/07/02 00:58:50;;;;;;;13.13;5.18;;;;;;;25.42;42.88;100863.53;4975782;28;20547;-50
2023/07/02 01:01:27;;;;;;;11.20;4.63;;;;;;;25.84;42.08;100864.34;4975748;28;20106;-51
2023/07/02 01:04:02;;;;;;;11.68;4.75;;;;;;;25.74;43.20;100853.59;4975767;28;20027;-50
2023/07/02 01:06:32;;;;;;;13.57;5.35;;;;;;;25.79;42.67;100858.97;4975613;28;20085;-48
2023/07/02 01:09:01;;;;;;;14.38;5.03;;;;;;;25.73;42.06;100860.19;4958455;28;20050;-50
2023/07/02 01:11:31;;;;;;;11.82;5.63;;;;;;;25.86;42.68;100856.63;4975526;28;20449;-47
2023/07/02 01:14:27;;;;;;;14.50;5.38;;;;;;;25.85;42.09;100856.94;4975365;28;20037;-48
2023/07/02 01:16:54;;;;;;;16.23;5.20;;;;;;;25.54;43.22;100855.66;4972573;28;20555;-49
2023/07/02 01:19:42;;;;;;;12.52;5.85;;;;;;;25.48;43.75;100851.34;4975324;28;20372;-47
2023/07/02 01:22:09;;;;;;;15.05;5.30;;;;;;;25.44;43.14;100860.53;4975344;28;20480;-47
2023/07/02 01:24:46;;;;;;;16.33;6.30;;;;;;;24.90;44.32;100860.13;4975205;28;20026;-49
2023/07/02 01:27:14;;;;;;;17.00;5.72;;;;;;;25.26;44.69;100856.75;4975147;28;20423;-49
2023/07/02 01:29:42;;;;;;;15.35;5.85;;;;;;;24.90;43.70;100857.41;4975072;28;20062;-46
2023/07/02 01:32:10;;;;;;;16.60;6.13;;;;;;;24.57;44.90;100847.59;4975146;28;20046;-46
2023/07/02 01:34:37;;;;;;;16.10;6.65;;;;;;;24.54;45.00;100854.50;4974256;28;20119;-49
2023/07/02 01:37:04;;;;;;;15.68;6.03;;;;;;;24.16;46.79;100862.69;4974974;28;20483;-49
2023/07/02 01:39:31;;;;;;;13.60;5.18;;;;;;;24.60;45.57;100866.16;4975111;28;20026;-49
2023/07/02 01:42:10;;;;;;;13.65;5.75;;;;;;;24.63;45.89;100857.34;4974833;28;20098;-49
2023/07/02 01:44:39;;;;;;;14.25;5.70;;;;;;;24.66;45.63;100867.69;4950451;29;20054;-50
2023/07/02 01:47:06;;;;;;;17.73;6.22;;;;;;;24.68;45.74;100863.53;4955874;29;20408;-49
2023/07/02 01:49:32;;;;;;;13.88;5.75;;;;;;;24.48;45.39;100861.94;4938907;29;20031;-49
2023/07/02 01:51:58;;;;;;;13.80;5.28;;;;;;;24.67;44.99;100866.56;4956175;29;20038;-50
2023/07/02 01:54:27;;;;;;;16.85;6.00;;;;;;;24.65;45.40;100866.88;4955783;29;20114;-47
2023/07/02 01:56:54;;;;;;;20.13;6.25;;;;;;;24.64;45.87;100859.75;4955727;29;20059;-49
2023/07/02 01:59:20;;;;;;;16.58;5.47;;;;;;;24.83;45.53;100857.00;4955310;29;20150;-48
2023/07/02 02:01:47;;;;;;;13.50;5.35;;;;;;;24.72;44.37;100861.81;4955322;29;20027;-47
2023/07/02 02:04:13;;;;;;;17.38;6.03;;;;;;;24.29;45.57;100869.34;4955200;29;20066;-49
2023/07/02 02:06:41;;;;;;;15.85;6.13;;;;;;;24.37;46.18;100865.13;4955097;29;20563;-46
2023/07/02 02:09:09;;;;;;;14.65;5.55;;;;;;;24.99;44.32;100860.28;4955139;29;20031;-49
2023/07/02 02:11:39;;;;;;;20.00;6.28;;;;;;;24.87;44.50;100859.91;4955096;29;20028;-49
2023/07/02 02:14:06;;;;;;;21.23;6.10;;;;;;;25.28;43.94;100857.28;4955037;29;20034;-46
2023/07/02 02:16:33;;;;;;;20.23;6.28;;;;;;;24.85;44.70;100860.22;4954988;29;20130;-48
2023/07/02 02:19:00;;;;;;;16.55;6.03;;;;;;;24.94;44.83;100857.63;4955129;29;20019;-47
2023/07/02 02:21:27;;;;;;;16.20;5.80;;;;;;;25.00;44.54;100851.75;4954963;29;20110;-46
2023/07/02 02:23:53;;;;;;;17.38;5.85;;;;;;;24.69;45.18;100853.41;4954992;29;20143;-50
2023/07/02 02:26:21;;;;;;;16.70;6.20;;;;;;;24.85;45.10;100854.75;4954886;29;20034;-46
2023/07/02 02:28:48;;;;;;;17.20;5.85;;;;;;;24.67;45.19;100861.09;4954889;29;20035;-50
2023/07/02 02:31:15;;;;;;;16.00;6.60;;;;;;;24.59;45.30;100861.78;4955277;29;20357;-46
2023/07/02 02:33:41;;;;;;;16.17;5.70;;;;;;;24.13;47.01;100863.28;4954906;29;20506;-49
2023/07/02 02:36:07;;;;;;;15.88;6.63;;;;;;;24.22;47.07;100863.44;4955091;29;20037;-49
2023/07/02 02:38:34;;;;;;;17.50;6.18;;;;;;;24.33;45.92;100866.84;4955029;29;20027;-48
2023/07/02 02:41:02;;;;;;;15.18;5.43;;;;;;;24.46;45.88;100861.44;4954873;29;20110;-48
2023/07/02 02:43:28;;;;;;;12.38;5.38;;;;;;;24.57;45.50;100853.88;4954892;29;20114;-46
2023/07/02 02:45:54;;;;;;;13.18;5.82;;;;;;;24.58;45.09;100854.69;4972966;28;20070;-45
2023/07/02 02:48:22;;;;;;;19.98;5.95;;;;;;;24.41;45.45;100852.50;4977963;28;20105;-48
2023/07/02 02:50:49;;;;;;;13.30;5.60;;;;;;;24.41;45.69;100852.50;4978607;28;20030;-46
2023/07/02 02:53:15;;;;;;;14.25;6.05;;;;;;;24.66;45.59;100854.00;4978124;28;20086;-46
2023/07/02 02:55:41;;;;;;;14.60;5.68;;;;;;;24.07;46.67;100853.53;4960580;28;20118;-49
2023/07/02 02:58:07;;;;;;;18.15;6.00;;;;;;;24.15;46.84;100852.03;4977559;28;20371;-49
2023/07/02 03:00:34;;;;;;;20.63;7.72;;;;;;;23.37;47.95;100859.59;4977781;28;20019;-46
2023/07/02 03:03:00;;;;;;;19.73;7.00;;;;;;;23.06;48.71;100863.78;4977683;28;20023;-45
2023/07/02 03:05:26;;;;;;;14.40;6.13;;;;;;;23.17;48.31;100871.59;4977627;28;20093;-45
2023/07/02 03:07:53;;;;;;;18.95;6.95;;;;;;;22.48;51.25;100863.72;4977709;28;20032;-45
2023/07/02 03:10:19;;;;;;;16.15;6.88;;;;;;;22.06;52.26;100867.81;4977654;28;20077;-45
2023/07/02 03:12:45;;;;;;;20.80;6.78;;;;;;;21.75;53.51;100869.88;4960599;28;20111;-45
2023/07/02 03:15:11;;;;;;;19.80;7.53;;;;;;;21.84;53.57;100863.56;4977713;28;20038;-48
2023/07/02 03:17:38;;;;;;;21.38;7.00;;;;;;;21.88;53.13;100861.94;4977812;28;20022;-48
2023/07/02 03:20:04;;;;;;;23.08;7.10;;;;;;;21.72;53.50;100871.28;4977734;28;20027;-46
2023/07/02 03:22:31;;;;;;;16.42;6.63;;;;;;;21.20;55.12;100875.22;4977446;28;20062;-46
2023/07/02 03:24:57;;;;;;;20.15;7.28;;;;;;;20.90;56.45;100867.13;4977434;28;20038;-47
2023/07/02 03:27:23;;;;;;;18.55;7.25;;;;;;;20.60;57.20;100867.94;4977427;28;20089;-48
2023/07/02 03:29:49;;;;;;;18.75;7.85;;;;;;;20.18;58.87;100877.13;4977400;28;20475;-46
2023/07/02 03:32:16;;;;;;;22.90;7.18;;;;;;;20.22;59.15;100876.31;4977209;28;20026;-49
2023/07/02 03:34:42;;;;;;;21.42;7.75;;;;;;;19.77;60.50;100871.59;4977223;28;20023;-49
2023/07/02 03:37:08;;;;;;;22.10;7.70;;;;;;;19.72;60.67;100871.56;4977272;28;20479;-50
2023/07/02 03:39:35;;;;;;;20.05;7.07;;;;;;;19.68;60.98;100882.13;4977121;28;20031;-49
2023/07/02 03:42:01;;;;;;;15.60;6.80;;;;;;;19.85;60.69;100883.81;4977400;28;20022;-49
2023/07/02 03:44:27;;;;;;;22.35;7.57;;;;;;;19.46;61.96;100882.28;4959663;28;20045;-49
2023/07/02 03:46:54;;;;;;;19.90;7.72;;;;;;;19.43;62.40;100876.53;4977275;28;20026;-46
2023/07/02 03:49:20;;;;;;;18.98;7.70;;;;;;;19.33;62.42;100881.94;4959631;28;20090;-50
2023/07/02 03:51:46;;;;;;;20.45;7.95;;;;;;;19.18;63.46;100869.09;4976852;28;20033;-49
2023/07/02 03:54:12;;;;;;;17.58;8.02;;;;;;;19.00;64.29;100878.50;4976819;28;20030;-46
2023/07/02 03:56:38;;;;;;;23.50;7.60;;;;;;;19.08;63.90;100874.47;4976792;28;20094;-45
2023/07/02 03:59:05;;;;;;;19.25;6.63;;;;;;;19.07;63.93;100878.25;4976153;28;20472;-49
2023/07/02 04:01:31;;;;;;;19.27;8.05;;;;;;;18.99;63.77;100879.56;4976931;28;20038;-48
2023/07/02 04:03:58;;;;;;;16.73;5.95;;;;;;;18.81;64.84;100879.97;4977304;28;20027;-46
2023/07/02 04:06:24;;;;;;;16.70;6.50;;;;;;;18.82;64.29;100882.44;4976657;28;20472;-45
2023/07/02 04:08:50;;;;;;;14.85;6.10;;;;;;;18.67;64.89;100887.69;4976679;28;20121;-49
2023/07/02 04:11:16;;;;;;;17.85;6.28;;;;;;;18.61;66.15;100886.03;4976904;28;20467;-45
2023/07/02 04:13:43;;;;;;;15.48;5.38;;;;;;;18.64;66.05;100894.44;4976479;28;20034;-46
2023/07/02 04:16:09;;;;;;;18.33;5.90;;;;;;;18.54;66.25;100886.22;4976575;28;20033;-46
2023/07/02 04:18:35;;;;;;;16.13;5.90;;;;;;;18.48;66.66;100890.78;4976497;28;20035;-46
2023/07/02 04:21:02;;;;;;;16.52;5.25;;;;;;;18.41;66.36;100886.66;4976743;28;20502;-50
2023/07/02 04:23:29;;;;;;;11.98;5.50;;;;;;;18.45;66.00;100891.31;4976712;28;20027;-45
2023/07/02 04:25:55;;;;;;;12.00;5.05;;;;;;;18.44;66.34;100888.84;4976435;28;20035;-46
2023/07/02 04:28:21;;;;;;;12.60;5.88;;;;;;;18.37;65.74;100886.31;4976087;28;20027;-46
2023/07/02 04:30:49;;;;;;;10.93;5.47;;;;;;;18.52;65.30;100890.28;4976175;28;20472;-49
2023/07/02 04:33:16;;;;;;;14.32;5.72;;;;;;;18.67;65.25;100896.69;4976150;28;20031;-49
2023/07/02 04:35:42;;;;;;;12.70;5.28;;;;;;;18.38;66.03;100888.00;4976034;28;20050;-47
2023/07/02 04:38:09;;;;;;;11.02;5.38;;;;;;;18.50;65.68;100895.13;4975992;28;20030;-46
2023/07/02 04:40:35;;;;;;;10.50;5.05;;;;;;;18.39;66.00;100907.78;4976009;28;20029;-47
2023/07/02 04:43:03;;;;;;;9.43;5.43;;;;;;;18.26;66.77;100910.88;4976007;28;20022;-48
2023/07/02 04:45:33;;;;;;;15.77;5.90;;;;;;;18.28;66.65;100908.75;4975808;28;20373;-49
2023/07/02 04:48:00;;;;;;;10.77;5.80;;;;;;;18.06;67.50;100908.78;4975821;28;20467;-49
2023/07/02 04:50:26;;;;;;;13.57;6.05;;;;;;;17.78;69.12;100909.81;4975933;28;20035;-45
2023/07/02 04:52:53;;;;;;;14.65;5.97;;;;;;;17.82;69.02;100906.34;4975756;28;20114;-49
2023/07/02 04:55:21;;;;;;;16.92;6.68;;;;;;;17.76;69.24;100917.34;4975670;28;20114;-49
2023/07/02 04:57:48;;;;;;;11.60;6.35;;;;;;;17.86;68.40;100912.06;4975747;28;20030;-49
2023/07/02 05:00:14;;;;;;;13.55;5.78;;;;;;;17.82;67.66;100925.31;4975610;28;20105;-49
2023/07/02 05:02:41;;;;;;;12.95;5.82;;;;;;;17.88;68.09;100920.75;4975926;28;20455;-49
2023/07/02 05:05:07;;;;;;;14.00;5.60;;;;;;;17.96;67.06;100923.00;4975512;28;20027;-49
2023/07/02 05:07:33;;;;;;;12.30;6.07;;;;;;;17.99;66.77;100922.53;4975453;28;20106;-49
2023/07/02 05:09:59;;;;;;;13.40;5.97;;;;;;;17.79;68.02;100927.69;4975480;28;20027;-48
2023/07/02 05:12:26;;;;;;;13.88;6.75;;;;;;;17.72;68.59;100929.75;4975721;28;20027;-47
2023/07/02 05:14:52;;;;;;;11.75;6.32;;;;;;;17.68;69.23;100937.53;4975977;28;20037;-48
2023/07/02 05:17:18;;;;;;;12.63;7.45;;;;;;;17.40;70.93;100938.50;4975321;28;20548;-48
2023/07/02 05:19:44;;;;;;;13.82;6.60;;;;;;;17.47;70.61;100932.91;4976226;28;20063;-45
2023/07/02 05:22:11;;;;;;;13.15;6.82;;;;;;;17.35;71.00;100936.53;4975457;28;20053;-46
2023/07/02 05:24:37;;;;;;;12.48;6.30;;;;;;;17.35;71.40;100941.94;4975215;28;20027;-49
2023/07/02 05:27:04;;;;;;;12.48;6.32;;;;;;;17.15;72.44;100944.34;4975519;28;20038;-49
2023/07/02 05:29:31;;;;;;;14.88;6.18;;;;;;;17.00;73.45;100950.34;4975055;28;20043;-45
2023/07/02 05:31:57;;;;;;;9.88;6.47;;;;;;;16.72;74.88;100953.94;4975388;28;20105;-45
2023/07/02 05:34:23;;;;;;;8.65;5.32;;;;;;;16.83;74.50;100958.44;4975364;28;20019;-46
2023/07/02 05:36:49;;;;;;;13.23;6.43;;;;;;;16.69;75.52;100973.28;4975344;28;20500;-46
2023/07/02 05:39:15;;;;;;;12.68;6.22;;;;;;;16.63;75.68;100972.38;4975229;28;20065;-48
2023/07/02 05:41:42;;;;;;;11.27;6.55;;;;;;;16.43;76.96;100969.28;4975156;28;20045;-46
2023/07/02 05:44:08;;;;;;;15.02;6.57;;;;;;;16.35;77.17;100980.50;4974890;28;20050;-47
2023/07/02 05:46:34;;;;;;;11.23;6.05;;;;;;;16.26;77.65;100976.53;4974853;28;20019;-49
2023/07/02 05:49:00;;;;;;;10.77;6.03;;;;;;;16.08;78.78;100972.13;4974970;28;20440;-48
2023/07/02 05:51:26;;;;;;;11.95;6.32;;;;;;;15.98;78.71;100975.44;4974657;28;20033;-48
2023/07/02 05:53:53;;;;;;;6.82;5.32;;;;;;;16.09;77.95;100969.19;4974744;28;20027;-47
2023/07/02 05:56:19;;;;;;;9.18;5.80;;;;;;;16.12;77.24;100957.09;4974898;28;20463;-48
2023/07/02 05:58:52;;;;;;;9.48;6.30;;;;;;;16.05;77.19;100951.03;4975117;28;20030;-46
2023/07/02 06:01:18;;;;;;;8.52;5.57;;;;;;;16.09;77.22;100952.16;4974437;28;20030;-48
2023/07/02 06:03:45;;;;;;;9.85;5.57;;;;;;;16.08;77.18;100945.13;4974482;28;20023;-49
2023/07/02 06:06:12;;;;;;;9.52;6.00;;;;;;;16.15;76.93;100943.09;4974540;28;20104;-49
2023/07/02 06:08:38;;;;;;;7.72;5.30;;;;;;;16.36;76.08;100938.91;4974365;28;20038;-48
2023/07/02 06:11:04;;;;;;;10.93;5.32;;;;;;;16.41;75.60;100940.88;4974365;28;20030;-49
2023/07/02 06:13:30;;;;;;;9.25;6.03;;;;;;;16.39;75.50;100941.13;4974363;28;20031;-49
2023/07/02 06:15:57;;;;;;;9.35;5.25;;;;;;;16.36;75.94;100947.84;4974768;28;20061;-48
2023/07/02 06:18:23;;;;;;;9.52;5.90;;;;;;;16.46;75.92;100949.09;4974331;28;20035;-48
2023/07/02 06:20:50;;;;;;;7.32;5.22;;;;;;;16.35;76.70;100945.38;4973788;28;20030;-48
2023/07/02 06:23:16;;;;;;;8.90;5.53;;;;;;;16.33;76.96;100931.31;4974346;28;20030;-49
2023/07/02 06:25:43;;;;;;;9.70;6.25;;;;;;;16.30;77.40;100927.19;4974616;28;20023;-49
2023/07/02 06:28:10;;;;;;;11.40;7.82;;;;;;;16.15;77.66;100929.59;4974168;28;20070;-48
2023/07/02 06:30:36;;;;;;;9.38;6.40;;;;;;;15.99;78.77;100933.91;4957094;28;20542;-50
2023/07/02 06:33:02;;;;;;;8.35;6.07;;;;;;;16.14;77.96;100935.25;4974120;28;20023;-46
2023/07/02 06:35:29;;;;;;;9.45;5.57;;;;;;;16.14;77.07;100927.16;4974019;28;20034;-48
2023/07/02 06:37:55;;;;;;;9.52;5.97;;;;;;;16.01;77.48;100923.66;4974205;28;20089;-46
2023/07/02 06:40:24;;;;;;;9.30;6.25;;;;;;;15.90;78.41;100921.81;4974121;28;20105;-45
2023/07/02 06:42:50;;;;;;;7.38;5.78;;;;;;;16.01;78.79;100930.94;4974028;28;20022;-45
2023/07/02 06:45:16;;;;;;;9.90;5.93;;;;;;;16.10;78.97;100933.03;4974042;28;20042;-45
2023/07/02 06:47:43;;;;;;;9.40;6.03;;;;;;;16.16;78.86;100936.66;4973934;28;20027;-48
2023/07/02 06:50:09;;;;;;;9.00;5.45;;;;;;;16.07;78.21;100938.91;4974128;28;20050;-48
2023/07/02 06:52:36;;;;;;;7.20;5.72;;;;;;;15.98;78.87;100936.81;4974138;28;20023;-49
2023/07/02 06:55:04;;;;;;;10.00;5.95;;;;;;;15.93;79.02;100944.81;4973866;28;20081;-47
2023/07/02 06:57:30;;;;;;;7.95;5.75;;;;;;;15.94;79.21;100928.41;4956777;28;20027;-49
2023/07/02 07:00:00;;;;;;;9.18;5.53;;;;;;;15.93;79.51;100931.31;4973928;28;20051;-50
2023/07/02 07:02:27;;;;;;;12.30;6.30;;;;;;;15.86;79.85;100930.63;4973925;28;20494;-49
2023/07/02 07:04:53;;;;;;;8.95;5.70;;;;;;;15.89;79.83;100922.88;4973944;28;20027;-47
2023/07/02 07:07:20;;;;;;;7.53;5.50;;;;;;;15.93;79.85;100924.03;4973927;28;20479;-48
2023/07/02 07:09:46;;;;;;;9.20;5.65;;;;;;;15.91;79.35;100920.75;4973883;28;20031;-49
2023/07/02 07:12:12;;;;;;;11.20;5.50;;;;;;;16.00;79.25;100923.91;4973876;28;20022;-48
2023/07/02 07:14:39;;;;;;;8.48;5.63;;;;;;;15.91;79.84;100918.06;4973813;28;20023;-48
2023/07/02 07:17:05;;;;;;;8.88;5.68;;;;;;;15.88;79.93;100926.66;4974179;28;20030;-48
2023/07/02 07:19:31;;;;;;;13.60;8.10;;;;;;;15.88;80.11;100925.81;4973774;28;20038;-48
2023/07/02 07:21:57;;;;;;;52.75;42.85;;;;;;;15.98;79.49;100932.22;4973777;28;20019;-46
2023/07/02 07:24:24;;;;;;;45.03;40.05;;;;;;;15.91;79.15;100923.47;4973752;28;20026;-49
2023/07/02 07:26:50;;;;;;;32.42;27.67;;;;;;;15.83;79.61;100921.16;4973735;28;20125;-45
2023/07/02 07:29:16;;;;;;;19.75;16.50;;;;;;;15.79;79.84;100928.06;4973613;28;20027;-49
2023/07/02 07:31:43;;;;;;;36.65;24.00;;;;;;;15.68;80.58;100937.00;4973657;28;20031;-48
2023/07/02 07:34:09;;;;;;;37.20;25.73;;;;;;;15.57;81.14;100925.97;4976129;28;20030;-49
2023/07/02 07:36:37;;;;;;;43.20;29.80;;;;;;;15.75;80.60;100919.63;4977379;28;20570;-47
2023/07/02 07:39:04;;;;;;;33.58;22.52;;;;;;;15.65;81.84;100932.91;4978007;28;20046;-47
2023/07/02 07:41:30;;;;;;;19.35;14.60;;;;;;;15.88;80.66;100929.34;4977154;28;20463;-48
2023/07/02 07:43:56;;;;;;;16.67;11.10;;;;;;;15.92;80.52;100925.09;4976818;28;20030;-46
2023/07/02 07:46:22;;;;;;;11.65;8.65;;;;;;;15.97;80.17;100927.91;4977515;28;20034;-46
2023/07/02 07:48:48;;;;;;;9.32;6.80;;;;;;;15.95;80.56;100927.31;4977054;28;20022;-46
2023/07/02 07:51:15;;;;;;;9.40;6.05;;;;;;;16.07;79.87;100924.59;4977636;28;20031;-49
2023/07/02 07:53:41;;;;;;;9.98;6.32;;;;;;;15.81;81.07;100913.28;4977173;28;20026;-49
2023/07/02 07:56:07;;;;;;;11.27;6.63;;;;;;;15.78;80.94;100902.16;4977301;28;20479;-48
2023/07/02 07:58:33;;;;;;;9.70;5.97;;;;;;;15.96;80.80;100906.56;4976657;28;20035;-46
2023/07/02 08:00:59;;;;;;;10.48;5.68;;;;;;;16.09;80.32;100904.38;4976811;28;20031;-49
2023/07/02 08:03:26;;;;;;;14.60;6.75;;;;;;;15.97;80.63;100900.91;4977007;28;20023;-45
2023/07/02 08:05:52;;;;;;;10.45;5.35;;;;;;;16.21;79.70;100901.66;4976870;28;20086;-47
2023/07/02 08:08:18;;;;;;;7.28;5.55;;;;;;;16.04;80.29;100893.47;4976761;28;20082;-46
2023/07/02 08:10:46;;;;;;;9.82;5.28;;;;;;;16.22;79.39;100886.25;4976676;28;20029;-48
2023/07/02 08:13:12;;;;;;;8.48;6.88;;;;;;;16.01;79.75;100885.88;4976490;28;20122;-45
2023/07/02 08:15:39;;;;;;;11.85;6.97;;;;;;;16.04;79.93;100885.38;4976569;28;20105;-48
2023/07/02 08:18:07;;;;;;;9.70;5.95;;;;;;;16.26;78.89;100876.59;4976750;28;20373;-46
2023/07/02 08:20:33;;;;;;;9.30;5.60;;;;;;;16.20;79.18;100877.56;4976791;28;20030;-49
2023/07/02 08:22:59;;;;;;;8.65;6.00;;;;;;;16.14;79.63;100871.25;4976324;28;20113;-45
2023/07/02 08:25:27;;;;;;;8.23;5.60;;;;;;;16.17;79.77;100868.09;4976352;28;20441;-47
2023/07/02 08:27:53;;;;;;;8.60;5.93;;;;;;;16.25;79.74;100873.06;4976756;28;20069;-46
2023/07/02 08:30:19;;;;;;;9.30;6.50;;;;;;;16.04;80.88;100876.47;4958945;28;20030;-45
2023/07/02 08:32:46;;;;;;;11.93;6.30;;;;;;;16.16;80.42;100873.69;4976178;28;20019;-50
2023/07/02 08:35:13;;;;;;;8.57;5.82;;;;;;;16.12;80.38;100870.69;4976103;28;20180;-49
2023/07/02 08:37:39;;;;;;;9.85;5.68;;;;;;;16.06;81.19;100877.06;4976107;28;20114;-47
2023/07/02 08:40:06;;;;;;;8.82;5.93;;;;;;;16.09;80.93;100871.97;4976033;28;20093;-48
2023/07/02 08:42:35;;;;;;;11.30;6.95;;;;;;;16.12;81.32;100877.97;4975865;28;20158;-46
2023/07/02 08:45:02;;;;;;;9.93;6.43;;;;;;;15.99;81.43;100881.75;4975442;28;20047;-44
2023/07/02 08:47:28;;;;;;;7.85;5.28;;;;;;;16.07;81.11;100884.91;4975770;28;20030;-48
2023/07/02 08:49:54;;;;;;;9.95;5.60;;;;;;;16.18;80.74;100887.81;4975830;28;20067;-49
2023/07/02 08:52:21;;;;;;;13.73;6.90;;;;;;;15.98;81.70;100880.13;4975835;28;20030;-47
2023/07/02 08:54:47;;;;;;;11.38;6.97;;;;;;;15.89;82.09;100874.31;4975818;28;20039;-46
2023/07/02 08:57:13;;;;;;;9.57;6.07;;;;;;;16.03;81.88;100872.94;4975862;28;20050;-47
2023/07/02 08:59:39;;;;;;;7.07;5.25;;;;;;;15.85;82.87;100873.13;4975835;28;20518;-48
2023/07/02 09:02:06;;;;;;;7.13;5.72;;;;;;;16.01;82.03;100874.25;4975616;28;20031;-47
2023/07/02 09:04:33;;;;;;;12.63;6.53;;;;;;;15.97;82.08;100873.91;4975722;28;20023;-45
2023/07/02 09:07:09;;;;;;;10.65;6.35;;;;;;;16.07;81.92;100868.72;4975596;28;20424;-49
2023/07/02 09:09:47;;;;;;;10.73;6.28;;;;;;;15.98;82.25;100869.31;4975625;28;20030;-46
2023/07/02 09:12:42;;;;;;;6.97;5.68;;;;;;;15.82;82.67;100863.66;4975618;28;20522;-46
2023/07/02 09:15:08;;;;;;;11.57;6.40;;;;;;;15.91;82.12;100866.78;4959083;28;20050;-45
2023/07/02 09:17:37;;;;;;;8.63;5.80;;;;;;;15.91;82.54;100866.78;4975452;28;20073;-49
2023/07/02 09:20:08;;;;;;;8.18;5.70;;;;;;;16.02;82.16;100871.31;4975455;28;20511;-48
2023/07/02 09:22:35;;;;;;;8.85;5.97;;;;;;;15.88;82.23;100869.97;4975485;28;20023;-49
2023/07/02 09:25:02;;;;;;;7.60;5.70;;;;;;;16.00;82.32;100867.22;4975285;28;20598;-46
2023/07/02 09:27:41;;;;;;;8.02;5.88;;;;;;;15.97;82.26;100868.50;4975435;28;20027;-49
2023/07/02 09:30:18;;;;;;;8.13;5.55;;;;;;;15.95;82.26;100869.81;4975171;28;20407;-47
2023/07/02 09:32:45;;;;;;;10.18;6.25;;;;;;;15.81;83.00;100875.47;4975152;28;20030;-47
2023/07/02 09:35:12;;;;;;;6.30;4.85;;;;;;;15.78;83.55;100886.78;4975095;28;20174;-46
2023/07/02 09:37:41;;;;;;;6.90;5.20;;;;;;;15.88;83.42;100875.38;4975085;28;20023;-46
2023/07/02 09:40:08;;;;;;;8.90;6.25;;;;;;;15.85;83.55;100875.84;4975084;28;20027;-46
2023/07/02 09:42:36;;;;;;;9.00;5.50;;;;;;;15.94;83.52;100879.00;4974868;28;20053;-48
2023/07/02 09:45:03;;;;;;;8.63;5.55;;;;;;;15.95;83.33;100880.63;4974673;28;20042;-46
2023/07/02 09:47:32;;;;;;;7.68;5.65;;;;;;;15.85;84.26;100889.34;4974888;28;20491;-49
2023/07/02 09:50:05;;;;;;;9.77;5.05;;;;;;;15.77;84.47;100879.75;4974809;28;20058;-49
2023/07/02 09:52:33;;;;;;;11.05;5.97;;;;;;;15.54;85.97;100879.75;4974837;28;20033;-49
2023/07/02 09:54:59;;;;;;;11.73;5.78;;;;;;;15.76;85.28;100861.88;4974504;28;20023;-46
2023/07/02 09:57:26;;;;;;;8.15;5.55;;;;;;;15.70;85.98;100860.16;4974310;28;20033;-48
2023/07/02 09:59:53;;;;;;;10.20;5.90;;;;;;;15.62;86.64;100852.41;4974791;28;20089;-50
2023/07/02 10:02:19;;;;;;;9.32;4.88;;;;;;;15.76;85.93;100845.69;4974793;28;20027;-45
2023/07/02 10:04:47;;;;;;;10.45;6.18;;;;;;;15.76;85.82;100839.47;4974860;28;20027;-48
2023/07/02 10:07:29;;;;;;;9.55;5.75;;;;;;;15.79;85.30;100844.41;4974598;28;20031;-49
2023/07/02 10:09:56;;;;;;;8.07;5.85;;;;;;;15.84;85.30;100841.81;4974505;28;20102;-46
2023/07/02 10:12:27;;;;;;;9.15;5.47;;;;;;;15.80;85.49;100852.25;4974660;28;20027;-49
2023/07/02 10:14:58;;;;;;;11.18;6.07;;;;;;;15.72;85.73;100865.31;4974551;28;20050;-46
2023/07/02 10:17:25;;;;;;;8.90;5.88;;;;;;;15.68;86.36;100869.56;4974584;28;20031;-49
2023/07/02 10:19:53;;;;;;;7.05;5.68;;;;;;;15.50;87.74;100860.53;4974436;28;20079;-48
2023/07/02 10:22:19;;;;;;;9.25;5.60;;;;;;;15.64;86.86;100863.00;4975371;28;20038;-50
2023/07/02 10:25:05;;;;;;;7.57;5.07;;;;;;;15.83;86.33;100867.16;4974349;28;20023;-49
2023/07/02 10:27:38;;;;;;;6.75;5.22;;;;;;;15.54;87.47;100872.47;4957183;28;20400;-47
2023/07/02 10:30:06;;;;;;;6.95;5.38;;;;;;;15.48;88.09;100875.31;4974377;28;20035;-49
2023/07/02 10:32:34;;;;;;;12.43;6.45;;;;;;;15.28;88.53;100868.44;4971515;28;20113;-46
2023/07/02 10:35:04;;;;;;;8.95;5.57;;;;;;;15.29;88.47;100877.34;4974543;28;20039;-49
2023/07/02 10:37:39;;;;;;;6.53;5.28;;;;;;;15.38;87.64;100875.94;4974564;28;20030;-46
2023/07/02 10:40:09;;;;;;;7.20;5.40;;;;;;;15.36;87.55;100874.50;4974435;28;20027;-48
2023/07/02 10:42:56;;;;;;;9.73;6.03;;;;;;;15.28;88.81;100870.31;4974285;28;20066;-48
2023/07/02 10:45:32;;;;;;;9.38;6.03;;;;;;;15.30;87.89;100868.19;4973858;28;20065;-45
2023/07/02 10:47:59;;;;;;;9.05;4.85;;;;;;;15.17;88.54;100874.66;4974061;28;20386;-47
2023/07/02 10:50:27;;;;;;;9.52;5.68;;;;;;;15.14;88.05;100879.69;4973985;28;20085;-48
2023/07/02 10:52:53;;;;;;;7.65;5.05;;;;;;;15.17;88.61;100887.31;4973919;28;20038;-48
2023/07/02 10:55:20;;;;;;;6.65;4.70;;;;;;;15.17;88.32;100884.63;4974083;28;20031;-48
2023/07/02 10:57:50;;;;;;;7.78;4.65;;;;;;;15.09;88.99;100884.97;4974127;28;20038;-47
2023/07/02 11:00:17;;;;;;;6.80;4.50;;;;;;;15.11;88.11;100880.16;4974089;28;20033;-45
2023/07/02 11:02:44;;;;;;;9.38;5.25;;;;;;;14.88;89.90;100883.66;4974025;28;20026;-47
2023/07/02 11:05:14;;;;;;;8.20;5.30;;;;;;;14.96;89.41;100867.97;4973991;28;20031;-47
2023/07/02 11:07:42;;;;;;;9.65;5.57;;;;;;;15.07;88.70;100868.22;4975848;28;20031;-46
2023/07/02 11:10:09;;;;;;;7.43;4.88;;;;;;;15.13;88.13;100864.56;4977708;28;20034;-48
2023/07/02 11:12:36;;;;;;;9.40;5.78;;;;;;;14.98;88.90;100860.47;4977828;28;20027;-49
2023/07/02 11:15:09;;;;;;;9.10;5.30;;;;;;;14.91;89.47;100850.84;4977661;28;20089;-47
2023/07/02 11:17:35;;;;;;;7.57;4.93;;;;;;;15.07;87.95;100849.34;4977619;28;20026;-48
2023/07/02 11:20:03;;;;;;;10.43;4.70;;;;;;;14.83;88.88;100843.97;4977617;28;20041;-46
2023/07/02 11:22:34;;;;;;;7.20;4.80;;;;;;;15.01;87.67;100843.00;4960147;28;20031;-49